Αναφορές METAR από Ελληνικά Αεροδρόμια

Σε αυτή τη σελίδα, μπορείτε να παρακολουθείτε τις αναφορές METAR που προέρχονται από τα κυριότερα αεροδρόμια της Ελλάδας. Το περιεχόμενο αποκωδικοποιείται, οπτικοποιείται και γίνεται κατανοητό από τον καθένα με τη χρήση του όμορφου δίγλωσσου γραφικού περιβάλλοντος του meteothes.gr!

Η αρχική κωδικοποιημένη αναφορά, συμπεριλαμβάνεται επίσης στο κάτω μέρος. Σε όποια καθεστερεί η ενημέρωση, το προειδοποιητικό μήνυμα "Μη ενημερωμένο METAR!" εμφανίζεται στο πάνω μέρος της με κόκκινα γράμματα.

Εχουν προστεθεί επίσης δύο αεροδρόμια από γειτονικές χώρες, την Οχρίδα(ΠΓΔΜ) και την Σόφια(Βουλγαρία) για να ελέγχουμε την εξέλιξη των ψυχρών εισβολών από τα Βόρεια!

LGTS - Thessaloniki/Makedonia-Elev 7m
Απόσταση από meteothes.gr: Ν 13km
Ενημερώθηκε: 28/02/2017 02:20
κυρίως νεφελώδης
κυρίως νεφελώδης
 Ανεμος από μεταβλητός
Ανεμος: μεταβλητός 6 km/h
Θερμοκρασία: 8°C
Σημ. Δρόσου: 8°C
Υγρασία: 100%
Βαρόμετρο: 1017 hPa
Νέφωση: κυρίως νεφελώδης
Ορατότητα: 10 km
Λεπτομέρειες Νεφών: Διάσπαρτα Nέφη 244 m
κυρίως νεφελώδης 610 m
2017/02/28 00:20 LGTS 280020Z VRB03KT 9999 FEW008 BKN020 08/08 Q1017 NOSIG
LGAV - Athens/Elef. Venizelos-Elev 94m
Απόσταση από meteothes.gr: ΝΝΑ 312km
Ενημερώθηκε: 28/02/2017 02:20
Μερικώς νεφελώδης
Μερικώς νεφελώδης
 Ανεμος από ΒΒΔ
Ανεμος: ΒΒΔ 6 km/h
Θερμοκρασία: 9°C
Σημ. Δρόσου: 8°C
Υγρασία: 94%
Βαρόμετρο: 1017 hPa
Νέφωση: Μερικώς νεφελώδης
Ορατότητα: 8 km
Λεπτομέρειες Νεφών: Διάσπαρτα Nέφη 152 m
Μερικώς νεφελώδης 366 m
2017/02/28 00:20 LGAV 280020Z 34003KT 8000 FEW005 SCT012 09/08 Q1017 NOSIG
 
LGAL - Alexandroupolis-Elev 3m
Απόσταση από meteothes.gr: Α 251km
Ενημερώθηκε: 27/02/2017 22:50
ΜΗ Ενημερωμένο METAR!
Διάσπαρτα Nέφη
Διάσπαρτα Nέφη
 Ανεμος από άπνοια
Ανεμος: άπνοια
Θερμοκρασία: 7°C
Σημ. Δρόσου: 6°C
Υγρασία: 93%
Βαρόμετρο: 1018 hPa
Νέφωση: Διάσπαρτα Nέφη
Ορατότητα: 8 km
Λεπτομέρειες Νεφών: Διάσπαρτα Nέφη 762 m
2017/02/27 20:50 LGAL 272050Z 00000KT 8000 FEW025 07/06 Q1018
LGKV - Kavala/Crysoupolis-Elev 5m
Απόσταση από meteothes.gr: ΑΒΑ 144km
Ενημερώθηκε: 28/02/2017 01:50
Μερικώς νεφελώδης
Μερικώς νεφελώδης
 Ανεμος από άπνοια
Ανεμος: άπνοια
Θερμοκρασία: 8°C
Σημ. Δρόσου: 6°C
Υγρασία: 87%
Βαρόμετρο: 1017 hPa
Νέφωση: Μερικώς νεφελώδης
Ορατότητα: 10 km
Λεπτομέρειες Νεφών: Διάσπαρτα Nέφη 762 m
Μερικώς νεφελώδης 2438 m
2017/02/27 23:50 LGKV 272350Z 00000KT 9999 FEW025 SCT080 08/06 Q1017
 
LGSK - Skiathos Island-Elev 15m
Απόσταση από meteothes.gr: ΝΝΑ 168km
Ενημερώθηκε: 27/02/2017 19:50
ΜΗ Ενημερωμένο METAR!
Αίθριος
Αίθριος
 Ανεμος από άπνοια
Ανεμος: άπνοια
Θερμοκρασία: 11°C
Σημ. Δρόσου: 9°C
Υγρασία: 88%
Βαρόμετρο: 1018 hPa
Συνθήκες: Αίθριος
Ορατότητα: πάνω από 10 km
2017/02/27 17:50 LGSK 271750Z 00000KT CAVOK 11/09 Q1018
LGLM - Limnos Island-Elev 5m
Απόσταση από meteothes.gr: ΑΝΑ 210km
Ενημερώθηκε: 28/02/2017 02:20

 Ανεμος από μεταβλητός
Ανεμος: μεταβλητός 6 km/h
Θερμοκρασία: 8°C
Σημ. Δρόσου: 6°C
Υγρασία: 87%
Βαρόμετρο: 1016 hPa
2017/02/28 00:20 LGLM 280020Z AUTO VRB03KT //// // ////// 08/06 Q1016 RE//
 
LGMT - Mitilini Island-Elev 17m
Απόσταση από meteothes.gr: ΑΝΑ 358km
Ενημερώθηκε: 27/02/2017 23:50
ΜΗ Ενημερωμένο METAR!
Μερικώς νεφελώδης
Μερικώς νεφελώδης
 Ανεμος από μεταβλητός
Ανεμος: μεταβλητός 4 km/h
Θερμοκρασία: 12°C
Σημ. Δρόσου: 9°C
Υγρασία: 82%
Βαρόμετρο: 1017 hPa
Νέφωση: Μερικώς νεφελώδης
Ορατότητα: 10 km
Λεπτομέρειες Νεφών: Μερικώς νεφελώδης 914 m
2017/02/27 21:50 LGMT 272150Z VRB02KT 9999 SCT030 12/09 Q1017
LGSY - Skiros Island-Elev 15m
Απόσταση από meteothes.gr: ΝΑ 227km
Ενημερώθηκε: 27/02/2017 20:50
ΜΗ Ενημερωμένο METAR!
Μερικώς νεφελώδης
Μερικώς νεφελώδης
 Ανεμος από άπνοια
Ανεμος: άπνοια
Θερμοκρασία: 9°C
Σημ. Δρόσου: 8°C
Υγρασία: 94%
Βαρόμετρο: 1017 hPa
Νέφωση: Μερικώς νεφελώδης
Ορατότητα: 10 km
Λεπτομέρειες Νεφών: Μερικώς νεφελώδης 610 m
2017/02/27 18:50 LGSY 271850Z 00000KT 9999 SCT020 09/08 Q1017 BLU
 
LGKZ - Kozani-Elev 628m
Απόσταση από meteothes.gr: ΔΝΔ 102km
Ενημερώθηκε: 27/02/2017 19:50
ΜΗ Ενημερωμένο METAR!
Αίθριος
Αίθριος
 Ανεμος από άπνοια
Ανεμος: άπνοια
Θερμοκρασία: 8°C
Σημ. Δρόσου: 6°C
Υγρασία: 87%
Βαρόμετρο: 1018 hPa
Συνθήκες: Αίθριος
Ορατότητα: πάνω από 10 km
2017/02/27 17:50 LGKZ 271750Z 00000KT CAVOK 08/06 Q1018
LGIO - Ioannina-Elev 476m
Απόσταση από meteothes.gr: ΔΝΔ 209km
Ενημερώθηκε: 28/02/2017 02:20
Αίθριος
Αίθριος
 Ανεμος από μεταβλητός
Ανεμος: μεταβλητός 0 km/h
Θερμοκρασία: 5°C
Σημ. Δρόσου: 4°C
Υγρασία: 93%
Βαρόμετρο: 1017 hPa
Συνθήκες: Αίθριος
Ορατότητα: πάνω από 10 km
2017/02/28 00:20 LGIO 280020Z /////KT CAVOK 05/04 Q1017
 
LGZA - Zakinthos-Elev 3m
Απόσταση από meteothes.gr: ΝΝΔ 367km
Ενημερώθηκε: 27/02/2017 19:50
ΜΗ Ενημερωμένο METAR!
Διάσπαρτα Nέφη
Διάσπαρτα Nέφη
 Ανεμος από άπνοια
Ανεμος: άπνοια
Θερμοκρασία: 15°C
Σημ. Δρόσου: 12°C
Υγρασία: 82%
Βαρόμετρο: 1016 hPa
Νέφωση: Διάσπαρτα Nέφη
Ορατότητα: 10 km
Λεπτομέρειες Νεφών: Διάσπαρτα Nέφη 610 m
2017/02/27 17:50 LGZA 271750Z 00000KT 9999 FEW020 15/12 Q1016
LGKR - Corfu Island-Elev 2m
Απόσταση από meteothes.gr: ΔΝΔ 282km
Ενημερώθηκε: 28/02/2017 02:20
Διάσπαρτα Nέφη
Διάσπαρτα Nέφη
 Ανεμος από άπνοια
Ανεμος: άπνοια
Θερμοκρασία: 10°C
Σημ. Δρόσου: 9°C
Υγρασία: 94%
Βαρόμετρο: 1017 hPa
Νέφωση: Διάσπαρτα Nέφη
Ορατότητα: 10 km
Λεπτομέρειες Νεφών: Διάσπαρτα Nέφη 914 m
2017/02/28 00:20 LGKR 280020Z 00000KT 9999 FEW030 10/09 Q1017 NOSIG
 
LGSO - Syros Island-Elev 72m
Απόσταση από meteothes.gr: ΝΝΑ 397km
Ενημερώθηκε: 27/02/2017 17:50
ΜΗ Ενημερωμένο METAR!
Διάσπαρτα Nέφη
Διάσπαρτα Nέφη
 Ανεμος από Β
Ανεμος: Β 24 km/h
Θερμοκρασία: 13°C
Σημ. Δρόσου: 11°C
Υγρασία: 88%
Βαρόμετρο: 1017 hPa
Νέφωση: Διάσπαρτα Nέφη
Ορατότητα: 10 km
Λεπτομέρειες Νεφών: Διάσπαρτα Nέφη 549 m
2017/02/27 15:50 LGSO 271550Z 36013KT 9999 FEW018 13/11 Q1017
LGMK - Mikonos Island-Elev 123m
Απόσταση από meteothes.gr: ΝΝΑ 412km
Ενημερώθηκε: 27/02/2017 19:50
ΜΗ Ενημερωμένο METAR!
Μερικώς νεφελώδης
Μερικώς νεφελώδης
 Ανεμος από Β
Ανεμος: Β 26 km/h
Θερμοκρασία: 12°C
Σημ. Δρόσου: 11°C
Υγρασία: 94%
Βαρόμετρο: 1016 hPa
Νέφωση: Μερικώς νεφελώδης
Ορατότητα: 10 km
Λεπτομέρειες Νεφών: Διάσπαρτα Nέφη 244 m
Μερικώς νεφελώδης 3048 m
2017/02/27 17:50 LGMK 271750Z 01014KT 9999 FEW008 SCT100 12/11 Q1016
 
LGSR - Santorini Island-Elev 40m
Απόσταση από meteothes.gr: ΝΝΑ 520km
Ενημερώθηκε: 28/02/2017 02:20
Ασθενής βροχή
Ασθενής βροχή
 Ανεμος από ΒΒΔ
Ανεμος: ΒΒΔ 17 km/h
Θερμοκρασία: 14°C
Σημ. Δρόσου: 12°C
Υγρασία: 88%
Βαρόμετρο: 1015 hPa
Συνθήκες: Ασθενής βροχή
2017/02/28 00:20 LGSR 280020Z AUTO 34009KT //// -RA ////// 14/12 Q1015 RE//
LGKL - Kalamata-Elev 8m
Απόσταση από meteothes.gr: Ν 405km
Ενημερώθηκε: 28/02/2017 02:20
Διάσπαρτα Nέφη
Διάσπαρτα Nέφη
 Ανεμος από άπνοια
Ανεμος: άπνοια
Θερμοκρασία: 9°C
Σημ. Δρόσου: 7°C
Υγρασία: 87%
Βαρόμετρο: 1016 hPa
Νέφωση: Διάσπαρτα Nέφη
Ορατότητα: 10 km
Λεπτομέρειες Νεφών: Διάσπαρτα Nέφη 914 m
2017/02/28 00:20 LGKL 280020Z 00000KT 9999 FEW030 09/07 Q1016
 
LGIR - Iraklion/Crete-Elev 5m
Απόσταση από meteothes.gr: ΝΝΑ 622km
Ενημερώθηκε: 28/02/2017 02:20
Μερικώς νεφελώδης
Μερικώς νεφελώδης
 Ανεμος από Β
Ανεμος: Β 13 km/h
Θερμοκρασία: 13°C
Σημ. Δρόσου: 12°C
Υγρασία: 94%
Βαρόμετρο: 1015 hPa
Νέφωση: Μερικώς νεφελώδης
Ορατότητα: 10 km
Λεπτομέρειες Νεφών: Διάσπαρτα Nέφη 366 m
Μερικώς νεφελώδης 762 m
2017/02/28 00:20 LGIR 280020Z 36007KT 9999 FEW012 SCT025 13/12 Q1015 NOSIG
LGRP - Rhodes-Elev 5m
Απόσταση από meteothes.gr: ΝΑ 649km
Ενημερώθηκε: 28/02/2017 02:20
Διάσπαρτα Nέφη
Διάσπαρτα Nέφη
 Ανεμος από άπνοια
Ανεμος: άπνοια
Θερμοκρασία: 13°C
Σημ. Δρόσου: 12°C
Υγρασία: 94%
Βαρόμετρο: 1014 hPa
Νέφωση: Διάσπαρτα Nέφη
Ορατότητα: 10 km
Λεπτομέρειες Νεφών: Διάσπαρτα Nέφη 549 m
2017/02/28 00:20 LGRP 280020Z 00000KT 9999 FEW018 13/12 Q1014 NOSIG
 
LWOH - Ohrid/FYROM-Elev 761m
Απόσταση από meteothes.gr: ΔΒΔ 188km
Ενημερώθηκε: 27/02/2017 17:00
ΜΗ Ενημερωμένο METAR!
Μερικώς νεφελώδης
Μερικώς νεφελώδης
 Ανεμος από ΝΑ
Ανεμος: ΝΑ 4 km/h
Θερμοκρασία: 13°C
Σημ. Δρόσου: 6°C
Υγρασία: 63%
Βαρόμετρο: 1017 hPa
Νέφωση: Μερικώς νεφελώδης
Ορατότητα: 10 km
Λεπτομέρειες Νεφών: Μερικώς νεφελώδης 1067 m
2017/02/27 15:00 LWOH 271500Z 13002KT 9999 SCT035 13/06 Q1017
LBSF - Sofia/Bulgaria-Elev 595m
Απόσταση από meteothes.gr: Β 227km
Ενημερώθηκε: 28/02/2017 02:30
Μερικώς νεφελώδης
Μερικώς νεφελώδης
 Ανεμος από ΝΑ
Ανεμος: ΝΑ 7 km/h
Θερμοκρασία: 7°C
Αίσθηση Ψύχρας: 6°C
Σημ. Δρόσου: 6°C
Υγρασία: 93%
Βαρόμετρο: 1016 hPa
Νέφωση: Μερικώς νεφελώδης
Ορατότητα: 8 km
2017/02/28 00:30 LBSF 280030Z 13004KT 8000 NSC 07/06 Q1016 NOSIG

(*) Μερικές αναφορές παρουσιάζουν λιγότερα στοιχεία γιατί οι αρχικές είναι ελλιπείς ή έχουν λάθος μορφοποίηση!